Time;durP1;ratioP1;P1;durP2;ratioP2;P2;SDS_P1;SDS_P2;PMS_P1;PMS_P2;Temp;Humidity;BMP_temperature;BMP_pressure;BME280_temperature;BME280_humidity;BME280_pressure;Samples;Min_cycle;Max_cycle;Signal;HPM_P1;HPM_P2
2023/06/19 00:00:55;;;;;;;7.38;6.68;;;23.70;1.00;;;;;;7388046;19;20475;-68
2023/06/19 00:03:27;;;;;;;19.15;8.10;;;23.70;1.00;;;;;;7393616;19;20019;-69
2023/06/19 00:05:57;;;;;;;8.88;6.85;;;23.70;1.00;;;;;;7391021;19;20014;-68
2023/06/19 00:08:27;;;;;;;8.77;6.97;;;23.70;1.00;;;;;;7388801;19;20011;-68
2023/06/19 00:10:57;;;;;;;9.35;6.38;;;23.70;1.00;;;;;;7389129;19;20500;-69
2023/06/19 00:13:27;;;;;;;7.57;6.43;;;23.80;1.00;;;;;;7388587;19;20022;-69
2023/06/19 00:16:01;;;;;;;8.23;7.07;;;23.70;1.00;;;;;;7391015;19;20015;-69
2023/06/19 00:18:39;;;;;;;10.98;6.88;;;23.70;1.00;;;;;;7390383;19;20021;-71
2023/06/19 00:21:10;;;;;;;7.90;6.40;;;23.70;1.00;;;;;;7386170;19;20046;-69
2023/06/19 00:23:40;;;;;;;7.57;5.90;;;23.70;1.00;;;;;;7391087;19;20022;-70
2023/06/19 00:26:14;;;;;;;7.43;6.72;;;23.70;1.00;;;;;;7390182;19;20070;-70
2023/06/19 00:28:45;;;;;;;7.97;6.63;;;23.70;1.00;;;;;;7386737;19;20083;-70
2023/06/19 00:31:16;;;;;;;8.00;6.50;;;23.80;1.00;;;;;;7386610;19;20022;-71
2023/06/19 00:33:50;;;;;;;8.38;6.80;;;23.80;1.00;;;;;;7389765;19;20082;-70
2023/06/19 00:36:23;;;;;;;7.03;6.13;;;23.70;1.00;;;;;;7390791;19;20010;-70
2023/06/19 00:38:53;;;;;;;8.00;7.20;;;23.70;1.00;;;;;;7386887;19;20021;-69
2023/06/19 00:41:23;;;;;;;8.65;6.95;;;23.70;1.00;;;;;;7386315;19;20022;-70
2023/06/19 00:43:54;;;;;;;8.95;6.93;;;23.70;1.00;;;;;;7389901;19;20356;-69
2023/06/19 00:46:24;;;;;;;7.90;6.50;;;23.60;1.00;;;;;;7390427;19;20018;-69
2023/06/19 00:48:56;;;;;;;15.63;6.90;;;23.70;1.00;;;;;;7386854;19;20018;-69
2023/06/19 00:51:26;;;;;;;14.93;7.30;;;23.70;1.00;;;;;;7386225;19;20018;-69
2023/06/19 00:53:56;;;;;;;9.85;7.18;;;23.60;1.00;;;;;;7387920;19;20401;-71
2023/06/19 00:56:26;;;;;;;9.35;7.13;;;23.60;1.00;;;;;;7388461;19;20007;-69
2023/06/19 00:58:56;;;;;;;7.65;6.82;;;23.60;1.00;;;;;;7388791;19;20007;-69
2023/06/19 01:01:27;;;;;;;6.90;6.20;;;23.70;1.00;;;;;;7387402;19;20078;-70
2023/06/19 01:04:00;;;;;;;7.25;6.53;;;23.70;1.00;;;;;;7387086;19;20018;-70
2023/06/19 01:06:40;;;;;;;7.85;6.20;;;23.70;1.00;;;;;;7390305;19;20030;-70
2023/06/19 01:09:13;;;;;;;7.55;6.25;;;23.90;1.00;;;;;;7390459;19;20043;-70
2023/06/19 01:11:48;;;;;;;9.10;6.73;;;23.80;1.00;;;;;;7388909;19;20039;-71
2023/06/19 01:14:22;;;;;;;7.85;7.05;;;23.60;1.00;;;;;;7387336;19;20392;-69
2023/06/19 01:16:54;;;;;;;7.20;6.47;;;23.50;1.00;;;;;;7387045;19;20022;-69
2023/06/19 01:19:27;;;;;;;8.73;6.50;;;23.40;1.00;;;;;;7385136;19;20022;-69
2023/06/19 01:21:57;;;;;;;10.27;5.80;;;23.30;1.00;;;;;;7388636;19;20021;-69
2023/06/19 01:24:29;;;;;;;6.40;5.25;;;23.20;1.00;;;;;;7386737;19;20029;-69
2023/06/19 01:26:59;;;;;;;8.85;5.15;;;23.10;1.00;;;;;;7383897;19;20015;-69
2023/06/19 01:29:29;;;;;;;7.10;5.28;;;23.20;1.00;;;;;;7385063;19;20047;-69
2023/06/19 01:32:08;;;;;;;6.50;5.00;;;23.20;1.00;;;;;;7386794;19;20443;-69
2023/06/19 01:34:39;;;;;;;11.32;4.60;;;23.20;1.00;;;;;;7384634;19;20102;-70
2023/06/19 01:37:12;;;;;;;10.05;3.70;;;23.20;1.00;;;;;;7386352;19;20014;-69
2023/06/19 01:39:47;;;;;;;7.38;3.72;;;23.10;1.00;;;;;;7385193;19;20540;-69
2023/06/19 01:42:17;;;;;;;5.15;3.40;;;23.10;1.00;;;;;;7387122;19;20014;-69
2023/06/19 01:44:47;;;;;;;4.43;3.20;;;23.10;1.00;;;;;;7387434;19;20030;-69
2023/06/19 01:47:19;;;;;;;5.40;3.40;;;23.20;1.00;;;;;;7385620;19;20372;-70
2023/06/19 01:49:49;;;;;;;4.30;3.05;;;23.10;1.00;;;;;;7384254;19;20019;-70
2023/06/19 01:52:19;;;;;;;4.85;3.13;;;23.10;1.00;;;;;;7386140;19;20397;-70
2023/06/19 01:54:52;;;;;;;4.15;3.75;;;23.00;1.00;;;;;;7387099;19;20022;-69
2023/06/19 01:57:22;;;;;;;6.40;3.42;;;23.00;1.00;;;;;;7383609;19;20031;-69
2023/06/19 01:59:52;;;;;;;4.18;3.78;;;23.00;1.00;;;;;;7383930;19;20018;-70
2023/06/19 02:02:22;;;;;;;7.80;3.53;;;23.00;1.00;;;;;;7386064;19;20022;-68
2023/06/19 02:04:52;;;;;;;5.18;3.75;;;23.00;1.00;;;;;;7394345;19;20014;-69
2023/06/19 02:07:22;;;;;;;5.72;3.83;;;23.00;1.00;;;;;;7392959;19;20023;-69
2023/06/19 02:09:55;;;;;;;5.10;3.88;;;23.00;1.00;;;;;;7391040;19;20597;-69
2023/06/19 02:12:25;;;;;;;7.25;3.90;;;22.90;1.00;;;;;;7394153;19;20010;-69
2023/06/19 02:14:55;;;;;;;4.57;3.97;;;22.90;1.00;;;;;;7393691;19;20499;-69
2023/06/19 02:17:25;;;;;;;6.70;3.70;;;22.90;1.00;;;;;;7396490;19;20506;-69
2023/06/19 02:19:55;;;;;;;6.70;3.70;;;22.90;1.00;;;;;;7388429;19;20014;-69
2023/06/19 02:22:26;;;;;;;4.10;3.70;;;22.90;1.00;;;;;;7392211;19;20026;-70
2023/06/19 02:24:58;;;;;;;5.05;4.55;;;22.90;1.00;;;;;;7393593;19;20525;-69
2023/06/19 02:27:28;;;;;;;5.18;3.80;;;22.90;1.00;;;;;;7393134;19;20121;-69
2023/06/19 02:29:58;;;;;;;5.00;4.22;;;22.80;1.00;;;;;;7390620;19;20015;-70
2023/06/19 02:32:29;;;;;;;4.93;4.20;;;22.90;1.00;;;;;;7391872;19;20014;-70
2023/06/19 02:34:59;;;;;;;4.60;3.75;;;22.90;1.00;;;;;;7397271;19;20014;-70
2023/06/19 02:37:29;;;;;;;5.78;4.05;;;22.90;1.00;;;;;;7391764;19;20129;-70
2023/06/19 02:40:03;;;;;;;4.50;3.83;;;22.90;1.00;;;;;;7390379;19;20022;-70
2023/06/19 02:42:33;;;;;;;6.60;3.90;;;22.90;1.00;;;;;;7389121;19;20025;-70
2023/06/19 02:45:05;;;;;;;5.05;4.20;;;22.90;1.00;;;;;;7390451;19;20031;-71
2023/06/19 02:47:38;;;;;;;6.47;4.20;;;22.90;1.00;;;;;;7391770;19;20014;-70
2023/06/19 02:50:09;;;;;;;4.70;4.22;;;22.90;1.00;;;;;;7390199;19;20022;-69
2023/06/19 02:52:39;;;;;;;4.68;3.80;;;22.80;1.00;;;;;;7393098;19;20042;-69
2023/06/19 02:55:12;;;;;;;5.05;3.67;;;22.80;1.00;;;;;;7392873;19;20019;-69
2023/06/19 02:57:42;;;;;;;6.40;3.63;;;22.80;1.00;;;;;;7394309;19;20348;-70
2023/06/19 03:00:14;;;;;;;3.83;3.42;;;22.90;1.00;;;;;;7391787;19;20014;-69
2023/06/19 03:02:44;;;;;;;5.25;3.80;;;22.80;1.00;;;;;;7387446;19;20010;-70
2023/06/19 03:05:16;;;;;;;4.47;3.50;;;22.70;1.00;;;;;;7391068;19;20021;-70
2023/06/19 03:07:46;;;;;;;6.38;3.53;;;22.70;1.00;;;;;;7393760;19;20010;-70
2023/06/19 03:10:19;;;;;;;4.90;3.30;;;22.70;1.00;;;;;;7390438;19;20011;-71
2023/06/19 03:12:49;;;;;;;4.85;3.10;;;22.60;1.00;;;;;;7390304;19;20014;-69
2023/06/19 03:15:19;;;;;;;4.43;3.40;;;22.70;1.00;;;;;;7392182;19;20377;-70
2023/06/19 03:17:49;;;;;;;6.90;3.72;;;22.60;1.00;;;;;;7394572;19;20018;-70
2023/06/19 03:20:20;;;;;;;5.47;3.67;;;22.70;1.00;;;;;;7391355;19;20511;-70
2023/06/19 03:22:51;;;;;;;4.45;3.30;;;22.70;1.00;;;;;;7392242;19;20025;-70
2023/06/19 03:25:26;;;;;;;4.35;3.33;;;22.80;1.00;;;;;;7388358;19;20028;-70
2023/06/19 03:27:56;;;;;;;4.28;3.60;;;22.70;1.00;;;;;;7385967;19;20064;-70
2023/06/19 03:30:26;;;;;;;5.03;3.88;;;22.70;1.00;;;;;;7388651;19;20026;-70
2023/06/19 03:32:56;;;;;;;4.18;3.63;;;22.70;1.00;;;;;;7389867;19;20138;-71
2023/06/19 03:35:26;;;;;;;5.45;3.72;;;22.70;1.00;;;;;;7388462;19;20039;-70
2023/06/19 03:37:56;;;;;;;7.32;3.88;;;22.80;1.00;;;;;;7389655;19;20015;-69
2023/06/19 03:40:29;;;;;;;6.38;3.22;;;22.80;1.00;;;;;;7387675;19;20443;-69
2023/06/19 03:43:01;;;;;;;6.88;3.47;;;22.90;1.00;;;;;;7388287;19;20011;-68
2023/06/19 03:45:31;;;;;;;3.65;3.05;;;23.10;1.00;;;;;;7390057;19;20014;-69
2023/06/19 03:48:01;;;;;;;5.47;3.22;;;23.10;1.00;;;;;;7388284;19;20019;-69
2023/06/19 03:50:31;;;;;;;4.03;3.13;;;23.10;1.00;;;;;;7390047;19;20018;-70
2023/06/19 03:53:01;;;;;;;5.03;3.45;;;23.00;1.00;;;;;;7383937;19;20021;-69
2023/06/19 03:55:34;;;;;;;8.57;2.85;;;22.80;1.00;;;;;;7388588;19;20014;-69
2023/06/19 03:58:04;;;;;;;4.03;2.92;;;22.70;1.00;;;;;;7388904;19;20025;-70
2023/06/19 04:00:34;;;;;;;4.25;2.85;;;22.60;1.00;;;;;;7389145;19;20078;-70
2023/06/19 04:03:04;;;;;;;3.97;3.22;;;22.60;1.00;;;;;;7391197;19;20381;-70
2023/06/19 04:05:34;;;;;;;3.20;2.88;;;22.60;1.00;;;;;;7390006;19;20526;-69
2023/06/19 04:08:04;;;;;;;4.25;2.85;;;22.60;1.00;;;;;;7387495;19;20377;-69
2023/06/19 04:10:37;;;;;;;3.25;2.95;;;22.70;1.00;;;;;;7388287;19;20022;-69
2023/06/19 04:13:07;;;;;;;3.05;2.42;;;22.70;1.00;;;;;;7388598;19;20019;-69
2023/06/19 04:15:37;;;;;;;3.45;2.50;;;22.70;1.00;;;;;;7387379;19;20073;-70
2023/06/19 04:18:07;;;;;;;3.03;2.58;;;22.70;1.00;;;;;;7390572;19;20665;-70
2023/06/19 04:20:37;;;;;;;5.00;2.65;;;22.70;1.00;;;;;;7387845;19;20017;-70
2023/06/19 04:23:07;;;;;;;6.00;2.78;;;22.80;1.00;;;;;;7390135;19;20329;-70
2023/06/19 04:25:40;;;;;;;5.00;3.10;;;23.10;1.00;;;;;;7386220;19;20031;-70
2023/06/19 04:28:09;;;;;;;4.22;2.75;;;23.60;1.00;;;;;;7388598;19;20022;-70
2023/06/19 04:30:40;;;;;;;4.65;2.65;;;24.10;1.00;;;;;;7388034;19;20494;-68
2023/06/19 04:33:10;;;;;;;2.63;2.13;;;24.20;1.00;;;;;;7391776;19;20018;-69
2023/06/19 04:35:41;;;;;;;3.75;2.67;;;23.50;1.00;;;;;;7388251;19;20039;-70
2023/06/19 04:38:14;;;;;;;3.95;2.42;;;23.30;1.00;;;;;;7388591;19;20042;-69
2023/06/19 04:40:47;;;;;;;5.70;3.03;;;23.50;1.00;;;;;;7386771;19;20090;-71
2023/06/19 04:43:17;;;;;;;3.40;1.97;;;24.00;1.00;;;;;;7390230;19;20011;-71
2023/06/19 04:45:48;;;;;;;4.15;2.20;;;25.90;1.00;;;;;;7386591;19;20262;-69
2023/06/19 04:48:18;;;;;;;3.20;2.17;;;26.00;1.00;;;;;;7387604;19;20018;-70
2023/06/19 04:50:48;;;;;;;4.43;2.20;;;26.10;1.00;;;;;;7390767;19;20127;-69
2023/06/19 04:53:18;;;;;;;3.80;2.28;;;25.70;1.00;;;;;;7388511;19;20014;-70
2023/06/19 04:55:54;;;;;;;4.35;2.20;;;24.90;1.00;;;;;;7389893;19;20023;-69
2023/06/19 04:58:24;;;;;;;4.68;1.90;;;24.90;1.00;;;;;;7388229;19;20081;-69
2023/06/19 05:00:54;;;;;;;5.15;1.90;;;25.50;1.00;;;;;;7386264;19;20035;-69
2023/06/19 05:03:24;;;;;;;2.85;2.08;;;27.20;1.00;;;;;;7387833;19;20363;-69
2023/06/19 05:05:54;;;;;;;2.50;2.13;;;28.40;1.00;;;;;;7387021;19;20052;-69
2023/06/19 05:08:24;;;;;;;3.90;2.30;;;28.20;1.00;;;;;;7385608;19;20022;-69
2023/06/19 05:10:57;;;;;;;2.28;1.95;;;27.40;1.00;;;;;;7385884;19;20019;-69
2023/06/19 05:13:27;;;;;;;3.30;2.00;;;27.60;1.00;;;;;;7385661;19;20014;-70
2023/06/19 05:15:58;;;;;;;3.17;2.00;;;27.70;1.00;;;;;;7388370;19;20019;-70
2023/06/19 05:18:28;;;;;;;6.95;2.22;;;27.40;1.00;;;;;;7389167;19;20356;-70
2023/06/19 05:20:58;;;;;;;3.05;2.30;;;27.40;1.00;;;;;;7386438;19;20094;-68
2023/06/19 05:23:28;;;;;;;4.43;2.13;;;27.80;1.00;;;;;;7386105;19;20475;-69
2023/06/19 05:26:00;;;;;;;3.90;2.10;;;27.50;1.00;;;;;;7386072;19;20035;-69
2023/06/19 05:28:30;;;;;;;2.33;2.00;;;27.40;1.00;;;;;;7385267;19;20022;-69
2023/06/19 05:31:00;;;;;;;3.85;2.00;;;27.80;1.00;;;;;;7385276;19;20038;-69
2023/06/19 05:33:30;;;;;;;5.65;2.30;;;26.80;1.00;;;;;;7387773;19;20491;-69
2023/06/19 05:36:01;;;;;;;3.78;2.30;;;26.10;1.00;;;;;;7390680;19;20023;-69
2023/06/19 05:38:30;;;;;;;2.78;2.10;;;25.20;1.00;;;;;;7385635;19;20058;-69
2023/06/19 05:41:03;;;;;;;3.33;2.22;;;24.90;1.00;;;;;;7383659;19;20014;-69
2023/06/19 05:43:34;;;;;;;4.45;2.33;;;25.10;1.00;;;;;;7386356;19;20014;-70
2023/06/19 05:46:04;;;;;;;3.42;2.70;;;25.10;1.00;;;;;;7385995;19;20147;-70
2023/06/19 05:48:34;;;;;;;2.22;2.03;;;25.20;1.00;;;;;;7387045;19;20010;-69
2023/06/19 05:51:04;;;;;;;2.90;2.05;;;24.90;1.00;;;;;;7386339;19;20022;-70
2023/06/19 05:53:34;;;;;;;6.70;2.97;;;24.80;1.00;;;;;;7388088;19;20334;-70
2023/06/19 05:56:07;;;;;;;4.30;2.20;;;24.50;1.00;;;;;;7385025;19;20336;-68
2023/06/19 05:58:38;;;;;;;2.95;2.22;;;24.40;1.00;;;;;;7387734;19;20031;-68
2023/06/19 06:01:08;;;;;;;2.95;2.63;;;24.60;1.00;;;;;;7385589;19;20035;-68
2023/06/19 06:03:39;;;;;;;3.70;2.03;;;24.50;1.00;;;;;;7386922;19;20018;-70
2023/06/19 06:06:09;;;;;;;2.58;2.03;;;24.80;1.00;;;;;;7388606;19;20014;-70
2023/06/19 06:08:38;;;;;;;2.80;2.50;;;24.90;1.00;;;;;;7381777;19;20162;-70
2023/06/19 06:11:11;;;;;;;2.50;2.30;;;24.70;1.00;;;;;;7382355;19;20052;-69
2023/06/19 06:13:41;;;;;;;2.40;2.20;;;24.90;1.00;;;;;;7383102;19;20018;-69
2023/06/19 06:16:11;;;;;;;4.93;2.50;;;25.00;1.00;;;;;;7385843;19;20021;-70
2023/06/19 06:18:41;;;;;;;4.80;2.17;;;24.80;1.00;;;;;;7389555;19;20348;-70
2023/06/19 06:21:12;;;;;;;2.97;2.47;;;24.90;1.00;;;;;;7382519;19;20083;-69
2023/06/19 06:23:44;;;;;;;5.50;2.63;;;24.70;1.00;;;;;;7385001;19;20015;-69
2023/06/19 06:26:18;;;;;;;4.70;2.22;;;24.70;1.00;;;;;;7384706;19;20014;-70
2023/06/19 06:28:48;;;;;;;2.40;2.20;;;25.10;1.00;;;;;;7383245;19;20018;-70
2023/06/19 06:31:18;;;;;;;6.03;2.33;;;25.40;1.00;;;;;;7382085;19;20018;-70
2023/06/19 06:33:48;;;;;;;2.90;2.35;;;25.40;1.00;;;;;;7386817;19;20023;-71
2023/06/19 06:36:18;;;;;;;4.97;2.17;;;25.30;1.00;;;;;;7387473;19;20015;-70
2023/06/19 06:39:05;;;;;;;3.35;2.50;;;25.20;1.00;;;;;;7388940;19;20022;-70
2023/06/19 06:41:38;;;;;;;2.92;2.30;;;25.30;1.00;;;;;;7386142;19;20021;-69
2023/06/19 06:44:08;;;;;;;2.70;2.25;;;25.70;1.00;;;;;;7386653;19;20010;-69
2023/06/19 06:46:38;;;;;;;2.35;2.15;;;25.60;1.00;;;;;;7386790;19;20006;-69
2023/06/19 06:49:08;;;;;;;4.70;2.10;;;25.90;1.00;;;;;;7392984;19;20014;-69
2023/06/19 06:51:37;;;;;;;2.80;2.38;;;26.40;1.00;;;;;;7394019;19;20365;-70
2023/06/19 06:54:07;;;;;;;4.32;2.67;;;26.90;1.00;;;;;;7391325;19;20081;-70
2023/06/19 06:56:40;;;;;;;2.58;2.20;;;27.00;1.00;;;;;;7393745;19;20478;-70
2023/06/19 06:59:10;;;;;;;3.22;2.15;;;26.90;1.00;;;;;;7395876;19;20019;-71
2023/06/19 07:01:40;;;;;;;5.35;2.30;;;27.30;1.00;;;;;;7391600;19;20400;-70
2023/06/19 07:04:10;;;;;;;4.72;2.33;;;27.50;1.00;;;;;;7391093;19;20377;-71
2023/06/19 07:06:40;;;;;;;3.45;2.17;;;27.50;1.00;;;;;;7390337;19;20078;-70
2023/06/19 07:09:10;;;;;;;2.95;2.30;;;27.10;1.00;;;;;;7395679;19;20037;-70
2023/06/19 07:11:42;;;;;;;5.95;2.20;;;26.50;1.00;;;;;;7392338;19;20031;-71
2023/06/19 07:14:12;;;;;;;4.18;2.00;;;26.50;1.00;;;;;;7387266;19;20040;-69
2023/06/19 07:16:42;;;;;;;2.25;2.03;;;26.30;1.00;;;;;;7390410;19;20086;-69
2023/06/19 07:19:12;;;;;;;2.25;1.85;;;26.60;1.00;;;;;;7392957;19;20078;-69
2023/06/19 07:21:42;;;;;;;5.25;3.95;;;26.30;1.00;;;;;;7393233;19;20011;-68
2023/06/19 07:24:12;;;;;;;2.60;2.08;;;26.20;1.00;;;;;;7392445;19;20022;-68
2023/06/19 07:26:45;;;;;;;2.40;2.00;;;26.30;1.00;;;;;;7391106;19;20006;-68
2023/06/19 07:29:15;;;;;;;4.20;1.92;;;26.10;1.00;;;;;;7387411;19;20010;-70
2023/06/19 07:31:45;;;;;;;3.00;2.47;;;25.90;1.00;;;;;;7390217;19;20365;-68
2023/06/19 07:34:16;;;;;;;3.55;1.88;;;26.30;1.00;;;;;;7388129;19;20015;-70
2023/06/19 07:36:46;;;;;;;2.35;1.92;;;26.60;1.00;;;;;;7391738;19;20018;-69
2023/06/19 07:39:16;;;;;;;3.03;2.70;;;27.00;1.00;;;;;;7389598;19;20026;-69
2023/06/19 07:41:48;;;;;;;2.85;2.20;;;26.90;1.00;;;;;;7389194;19;20463;-68
2023/06/19 07:44:20;;;;;;;3.00;2.05;;;26.70;1.00;;;;;;7397350;19;20014;-68
2023/06/19 07:46:50;;;;;;;5.00;2.13;;;26.80;1.00;;;;;;7394555;19;20007;-68
2023/06/19 07:49:20;;;;;;;2.70;2.30;;;26.70;1.00;;;;;;7395606;19;20022;-69
2023/06/19 07:51:50;;;;;;;3.00;2.20;;;26.30;1.00;;;;;;7394045;19;20007;-69
2023/06/19 07:54:20;;;;;;;3.72;2.38;;;26.20;1.00;;;;;;7390801;19;20021;-69
2023/06/19 07:56:52;;;;;;;3.00;1.90;;;27.00;1.00;;;;;;7390220;19;20040;-68
2023/06/19 07:59:23;;;;;;;3.65;2.97;;;27.30;1.00;;;;;;7389228;19;20011;-69
2023/06/19 08:01:53;;;;;;;2.20;2.00;;;27.50;1.00;;;;;;7388011;19;20462;-68
2023/06/19 08:04:23;;;;;;;5.65;3.22;;;27.30;1.00;;;;;;7387915;19;20447;-69
2023/06/19 08:06:53;;;;;;;2.22;2.03;;;27.30;1.00;;;;;;7387769;19;20375;-69
2023/06/19 08:09:23;;;;;;;2.55;2.03;;;27.50;1.00;;;;;;7387590;19;20360;-70
2023/06/19 08:11:56;;;;;;;2.45;1.98;;;28.00;1.00;;;;;;7394419;19;20017;-69
2023/06/19 08:14:26;;;;;;;7.65;2.15;;;27.70;1.00;;;;;;7393297;19;20053;-69
2023/06/19 08:16:57;;;;;;;2.42;2.22;;;27.80;1.00;;;;;;7394330;19;20015;-69
2023/06/19 08:19:27;;;;;;;2.10;1.83;;;26.90;1.00;;;;;;7394159;19;20038;-69
2023/06/19 08:21:57;;;;;;;3.33;2.00;;;26.80;1.00;;;;;;7390669;19;20521;-69
2023/06/19 08:24:27;;;;;;;2.92;2.00;;;26.80;1.00;;;;;;7391788;19;20011;-69
2023/06/19 08:27:00;;;;;;;2.35;1.88;;;26.00;1.00;;;;;;7393417;19;20363;-68
2023/06/19 08:29:30;;;;;;;3.40;2.40;;;27.00;1.00;;;;;;7394780;19;20019;-69
2023/06/19 08:32:01;;;;;;;3.03;2.13;;;27.10;1.00;;;;;;7390202;19;20007;-68
2023/06/19 08:34:31;;;;;;;2.25;2.00;;;27.10;1.00;;;;;;7389568;19;20010;-68
2023/06/19 08:37:01;;;;;;;4.10;2.05;;;27.70;1.00;;;;;;7391213;19;20010;-68
2023/06/19 08:39:31;;;;;;;3.28;2.10;;;27.50;1.00;;;;;;7392477;19;20010;-70
2023/06/19 08:42:04;;;;;;;4.15;2.50;;;27.30;1.00;;;;;;7387483;19;20011;-69
2023/06/19 08:44:35;;;;;;;5.50;2.40;;;27.40;1.00;;;;;;7388197;19;20006;-69
2023/06/19 08:47:09;;;;;;;;;;;26.50;1.00;;;;;;7393438;19;20019;-70
2023/06/19 08:49:41;;;;;;;4.05;2.30;;;27.50;1.00;;;;;;7393062;19;19927;-68
2023/06/19 08:52:12;;;;;;;2.08;1.77;;;28.10;1.00;;;;;;7390842;19;20011;-69
2023/06/19 08:54:43;;;;;;;5.63;2.47;;;28.30;1.00;;;;;;7388266;19;20356;-69
2023/06/19 08:57:16;;;;;;;4.82;2.00;;;28.10;1.00;;;;;;7388760;19;20018;-69
2023/06/19 08:59:51;;;;;;;2.20;2.00;;;27.40;1.00;;;;;;7392822;19;20011;-69
2023/06/19 09:02:22;;;;;;;3.17;2.30;;;27.90;1.00;;;;;;7392111;19;21541;-68
2023/06/19 09:04:52;;;;;;;4.07;2.58;;;26.40;1.00;;;;;;7392255;19;20024;-68
2023/06/19 09:07:22;;;;;;;2.85;2.10;;;27.20;1.00;;;;;;7390911;19;20070;-69
2023/06/19 09:09:52;;;;;;;2.60;2.10;;;28.10;1.00;;;;;;7391646;19;20032;-68
2023/06/19 09:12:25;;;;;;;2.30;1.92;;;28.40;1.00;;;;;;7387889;19;20014;-69
2023/06/19 09:14:57;;;;;;;2.28;1.88;;;28.40;1.00;;;;;;7384069;19;20025;-69
2023/06/19 09:17:27;;;;;;;3.50;2.20;;;28.80;1.00;;;;;;7387031;19;20020;-69
2023/06/19 09:19:58;;;;;;;3.10;2.45;;;29.00;1.00;;;;;;7384547;19;20107;-69
2023/06/19 09:22:29;;;;;;;3.00;2.30;;;28.50;1.00;;;;;;7389925;19;20089;-68
2023/06/19 09:25:02;;;;;;;;;;;28.10;1.00;;;;;;7388279;19;20014;-69
2023/06/19 09:27:37;;;;;;;4.30;2.67;;;28.30;1.00;;;;;;7388918;19;19919;-69
2023/06/19 09:30:09;;;;;;;2.67;2.38;;;28.30;1.00;;;;;;7381697;19;20022;-69
2023/06/19 09:32:38;;;;;;;3.03;2.70;;;27.70;1.00;;;;;;7387152;19;20028;-69
2023/06/19 09:35:10;;;;;;;2.97;2.60;;;28.00;1.00;;;;;;7387182;19;20086;-70
2023/06/19 09:37:41;;;;;;;4.63;2.47;;;27.70;1.00;;;;;;7388277;19;20534;-69
2023/06/19 09:40:13;;;;;;;2.50;2.30;;;27.60;1.00;;;;;;7387977;19;20039;-68
2023/06/19 09:42:46;;;;;;;3.00;2.70;;;27.50;1.00;;;;;;7384751;19;20030;-67
2023/06/19 09:45:20;;;;;;;3.53;2.67;;;27.70;1.00;;;;;;7385898;19;20029;-69
2023/06/19 09:47:54;;;;;;;5.78;3.38;;;27.50;1.00;;;;;;7385298;19;20022;-68
2023/06/19 09:50:27;;;;;;;;;;;27.30;1.00;;;;;;7390277;19;20018;-68
2023/06/19 09:52:58;;;;;;;5.43;3.00;;;27.10;1.00;;;;;;7388427;19;19919;-69
2023/06/19 09:55:30;;;;;;;5.22;2.65;;;26.90;1.00;;;;;;7387367;19;20494;-69
2023/06/19 09:58:05;;;;;;;4.50;2.70;;;27.30;1.00;;;;;;7387318;19;20010;-70
2023/06/19 10:00:37;;;;;;;3.72;2.85;;;27.60;1.00;;;;;;7386067;19;20019;-69
2023/06/19 10:03:13;;;;;;;2.83;2.63;;;27.50;1.00;;;;;;7391235;19;20013;-70
2023/06/19 10:05:43;;;;;;;4.18;2.80;;;27.20;1.00;;;;;;7385839;19;20018;-69
2023/06/19 10:08:13;;;;;;;4.00;3.13;;;27.30;1.00;;;;;;7387664;19;20023;-69
2023/06/19 10:10:49;;;;;;;3.30;2.80;;;27.40;1.00;;;;;;7385734;19;20015;-69
2023/06/19 10:13:22;;;;;;;4.28;2.80;;;27.90;1.00;;;;;;7387663;19;20025;-68
2023/06/19 10:15:52;;;;;;;4.05;3.00;;;27.50;1.00;;;;;;7386110;19;20479;-69
2023/06/19 10:18:24;;;;;;;3.22;2.92;;;27.30;1.00;;;;;;7385701;19;20015;-69
2023/06/19 10:20:57;;;;;;;4.30;2.92;;;26.80;1.00;;;;;;7385779;19;20014;-69
2023/06/19 10:23:28;;;;;;;3.03;2.78;;;26.80;1.00;;;;;;7387847;19;20502;-71
2023/06/19 10:26:00;;;;;;;3.15;2.75;;;27.40;1.00;;;;;;7392553;19;20015;-71
2023/06/19 10:28:36;;;;;;;2.70;2.50;;;28.20;1.00;;;;;;7389417;19;20018;-70
2023/06/19 10:31:08;;;;;;;4.85;2.47;;;27.70;1.00;;;;;;7390527;19;20703;-71
2023/06/19 10:33:40;;;;;;;4.00;2.80;;;27.50;1.00;;;;;;7393912;19;20011;-70
2023/06/19 10:36:17;;;;;;;3.20;2.90;;;27.70;1.00;;;;;;7395001;19;20046;-71
2023/06/19 10:38:48;;;;;;;3.22;2.70;;;27.50;1.00;;;;;;7394557;19;20032;-71
2023/06/19 10:41:18;;;;;;;3.00;2.70;;;27.90;1.00;;;;;;7391354;19;20086;-71
2023/06/19 10:43:59;;;;;;;2.88;2.58;;;28.40;1.00;;;;;;7395204;19;20462;-70
2023/06/19 10:46:32;;;;;;;4.03;2.88;;;28.50;1.00;;;;;;7392743;19;20341;-69
2023/06/19 10:49:04;;;;;;;;;;;28.20;1.00;;;;;;7395720;19;20098;-69
2023/06/19 10:51:37;;;;;;;3.25;2.80;;;27.60;1.00;;;;;;7392689;19;19914;-71
2023/06/19 10:54:08;;;;;;;5.15;2.72;;;27.60;1.00;;;;;;7392730;19;20011;-71
2023/06/19 10:56:38;;;;;;;3.22;2.70;;;28.40;1.00;;;;;;7391521;19;20011;-70
2023/06/19 10:59:13;;;;;;;3.75;2.95;;;28.00;1.00;;;;;;7395650;19;20024;-71
2023/06/19 11:01:45;;;;;;;3.78;2.92;;;28.00;1.00;;;;;;7397675;19;20033;-70
2023/06/19 11:04:17;;;;;;;2.97;2.67;;;28.00;1.00;;;;;;7389909;19;20011;-71
2023/06/19 11:06:48;;;;;;;4.75;2.92;;;28.20;1.00;;;;;;7392319;19;20040;-71
2023/06/19 11:09:19;;;;;;;2.83;2.60;;;27.70;1.00;;;;;;7393594;19;20022;-68
2023/06/19 11:11:52;;;;;;;4.18;2.72;;;28.20;1.00;;;;;;7389940;19;20479;-69
2023/06/19 11:14:25;;;;;;;4.18;3.28;;;27.90;1.00;;;;;;7386977;19;20021;-69
2023/06/19 11:16:55;;;;;;;5.45;4.40;;;27.10;1.00;;;;;;7393056;19;20035;-70
2023/06/19 11:19:25;;;;;;;3.38;3.08;;;28.10;1.00;;;;;;7390799;19;20505;-70
2023/06/19 11:21:55;;;;;;;3.58;3.08;;;29.10;1.00;;;;;;7385401;19;20334;-69
2023/06/19 11:24:26;;;;;;;4.35;2.63;;;29.50;1.00;;;;;;7394910;19;20009;-69
2023/06/19 11:26:59;;;;;;;4.05;3.03;;;29.00;1.00;;;;;;7394185;19;20025;-68
2023/06/19 11:29:33;;;;;;;3.50;2.95;;;28.20;1.00;;;;;;7394769;19;20052;-69
2023/06/19 11:32:11;;;;;;;5.22;2.75;;;28.80;1.00;;;;;;7395933;19;20014;-72
2023/06/19 11:34:43;;;;;;;4.22;3.08;;;28.40;1.00;;;;;;7390514;19;20015;-72
2023/06/19 11:37:17;;;;;;;3.97;3.58;;;28.70;1.00;;;;;;7387880;19;20030;-72
2023/06/19 11:39:49;;;;;;;3.97;3.05;;;27.50;1.00;;;;;;7390070;19;20018;-70
2023/06/19 11:42:19;;;;;;;2.92;2.70;;;28.20;1.00;;;;;;7390124;19;20043;-71
2023/06/19 11:44:59;;;;;;;3.92;3.03;;;28.40;1.00;;;;;;7394728;19;20018;-70
2023/06/19 11:47:32;;;;;;;4.60;3.25;;;28.70;1.00;;;;;;7393517;19;20476;-71
2023/06/19 11:50:03;;;;;;;2.90;2.70;;;28.40;1.00;;;;;;7391065;19;20038;-74
2023/06/19 11:52:33;;;;;;;3.38;2.95;;;28.90;1.00;;;;;;7391281;19;20023;-70
2023/06/19 11:55:03;;;;;;;2.88;2.55;;;28.50;1.00;;;;;;7391532;19;20402;-70
2023/06/19 11:57:33;;;;;;;3.80;3.50;;;28.60;1.00;;;;;;7389048;19;20017;-70
2023/06/19 12:00:09;;;;;;;2.88;2.63;;;29.20;1.00;;;;;;7389383;19;20010;-70
2023/06/19 12:02:39;;;;;;;4.13;2.95;;;29.40;1.00;;;;;;7394469;19;20393;-70
2023/06/19 12:05:10;;;;;;;3.67;3.38;;;29.20;1.00;;;;;;7394421;19;20010;-70
2023/06/19 12:07:41;;;;;;;3.30;2.97;;;28.80;1.00;;;;;;7394952;19;20010;-71
2023/06/19 12:10:12;;;;;;;3.28;2.97;;;29.00;1.00;;;;;;7392865;19;20014;-71
2023/06/19 12:12:42;;;;;;;3.55;2.80;;;28.80;1.00;;;;;;7390973;19;20043;-70
2023/06/19 12:15:15;;;;;;;5.93;2.80;;;28.50;1.00;;;;;;7389439;19;20018;-70
2023/06/19 12:17:45;;;;;;;3.08;2.78;;;28.30;1.00;;;;;;7392071;19;20014;-70
2023/06/19 12:20:16;;;;;;;3.90;3.20;;;28.90;1.00;;;;;;7386484;19;20018;-72
2023/06/19 12:22:46;;;;;;;3.58;3.20;;;28.50;1.00;;;;;;7391780;19;20046;-71
2023/06/19 12:25:16;;;;;;;3.33;3.03;;;28.70;1.00;;;;;;7386943;19;20046;-70
2023/06/19 12:27:46;;;;;;;3.80;3.33;;;28.60;1.00;;;;;;7390379;19;20015;-71
2023/06/19 12:30:18;;;;;;;3.95;3.13;;;28.80;1.00;;;;;;7390683;19;20015;-69
2023/06/19 12:32:49;;;;;;;3.42;3.13;;;29.60;1.00;;;;;;7390795;19;20014;-69
2023/06/19 12:35:20;;;;;;;3.45;2.75;;;28.60;1.00;;;;;;7392796;19;20011;-70
2023/06/19 12:37:50;;;;;;;4.13;2.72;;;28.50;1.00;;;;;;7387982;19;20011;-70
2023/06/19 12:40:20;;;;;;;4.85;3.40;;;29.30;1.00;;;;;;7391478;19;20595;-71
2023/06/19 12:42:50;;;;;;;4.43;2.95;;;28.70;1.00;;;;;;7388759;19;20025;-70
2023/06/19 12:45:23;;;;;;;3.70;2.80;;;28.80;1.00;;;;;;7389633;19;20018;-71
2023/06/19 12:47:53;;;;;;;4.35;2.85;;;28.50;1.00;;;;;;7387927;19;20016;-70
2023/06/19 12:50:25;;;;;;;3.65;3.03;;;29.40;1.00;;;;;;7386777;19;20522;-70
2023/06/19 12:52:55;;;;;;;3.17;2.88;;;29.80;1.00;;;;;;7388921;19;20413;-70
2023/06/19 12:55:25;;;;;;;3.78;3.08;;;30.00;1.00;;;;;;7385079;19;20018;-70
2023/06/19 12:57:55;;;;;;;3.13;2.83;;;29.40;1.00;;;;;;7388698;19;20041;-71
2023/06/19 13:00:27;;;;;;;5.15;3.65;;;29.80;1.00;;;;;;7386834;19;20090;-71
2023/06/19 13:02:57;;;;;;;3.50;3.03;;;29.60;1.00;;;;;;7386887;19;20043;-71
2023/06/19 13:05:27;;;;;;;3.55;3.25;;;29.90;1.00;;;;;;7382355;19;20129;-72
2023/06/19 13:07:57;;;;;;;3.10;2.80;;;30.20;1.00;;;;;;7388537;19;20032;-72
2023/06/19 13:10:27;;;;;;;3.10;2.80;;;30.80;1.00;;;;;;7387914;19;20010;-70
2023/06/19 13:12:58;;;;;;;3.15;2.88;;;31.10;1.00;;;;;;7387809;19;20450;-71
2023/06/19 13:15:30;;;;;;;6.65;3.00;;;30.10;1.00;;;;;;7388036;19;20014;-71
2023/06/19 13:18:00;;;;;;;4.50;2.80;;;30.20;1.00;;;;;;7383675;19;20501;-71